Time;durP1;ratioP1;P1;durP2;ratioP2;P2;SDS_P1;SDS_P2;PMS_P1;PMS_P2;Temp;Humidity;BMP_temperature;BMP_pressure;BME280_temperature;BME280_humidity;BME280_pressure;Samples;Min_cycle;Max_cycle;Signal;HPM_P1;HPM_P2
2021/12/03 00:01:53;;;;;;;5.28;2.80;;;1.90;99.90;;;;;;4979330;28;20093;-81
2021/12/03 00:04:18;;;;;;;8.27;3.40;;;1.90;99.90;;;;;;4971239;28;20228;-75
2021/12/03 00:06:44;;;;;;;8.88;3.10;;;1.90;99.90;;;;;;4959589;29;20035;-76
2021/12/03 00:09:10;;;;;;;5.03;3.00;;;1.80;99.90;;;;;;4979328;28;20049;-79
2021/12/03 00:11:36;;;;;;;5.00;3.25;;;1.80;99.90;;;;;;4978635;28;20027;-79
2021/12/03 00:14:02;;;;;;;6.85;3.17;;;1.70;99.90;;;;;;4952264;28;20039;-75
2021/12/03 00:16:28;;;;;;;6.55;3.58;;;1.60;99.90;;;;;;4979531;28;20110;-77
2021/12/03 00:18:54;;;;;;;9.30;4.07;;;1.60;99.90;;;;;;4974169;28;20027;-77
2021/12/03 00:21:21;;;;;;;4.38;3.00;;;1.60;99.90;;;;;;4973618;28;20034;-76
2021/12/03 00:23:47;;;;;;;6.32;3.70;;;1.50;99.90;;;;;;4976239;29;20087;-75
2021/12/03 00:26:12;;;;;;;6.82;3.63;;;1.40;99.90;;;;;;4972039;29;20031;-77
2021/12/03 00:28:39;;;;;;;7.28;3.65;;;1.30;99.90;;;;;;4965648;28;20057;-77
2021/12/03 00:31:05;;;;;;;6.68;4.20;;;1.30;99.90;;;;;;4972279;28;20055;-78
2021/12/03 00:33:32;;;;;;;7.07;3.65;;;1.30;99.90;;;;;;4984160;28;20054;-78
2021/12/03 00:36:03;;;;;;;7.13;3.80;;;1.20;99.90;;;;;;4983970;28;20030;-77
2021/12/03 00:38:30;;;;;;;9.27;4.13;;;1.20;99.90;;;;;;4983613;28;20043;-80
2021/12/03 00:40:57;;;;;;;7.32;3.92;;;1.20;99.90;;;;;;4983363;28;20245;-78
2021/12/03 00:43:22;;;;;;;8.27;4.72;;;1.30;99.90;;;;;;4982657;28;20034;-79
2021/12/03 00:45:50;;;;;;;7.07;3.90;;;1.30;99.90;;;;;;4981479;28;20042;-79
2021/12/03 00:48:16;;;;;;;8.65;4.05;;;1.40;99.90;;;;;;4981862;28;20050;-76
2021/12/03 00:50:42;;;;;;;9.77;4.18;;;1.30;99.90;;;;;;4981491;28;20031;-76
2021/12/03 00:53:08;;;;;;;9.88;4.07;;;1.30;99.90;;;;;;4983432;28;20023;-79
2021/12/03 00:55:34;;;;;;;7.47;4.40;;;1.40;99.90;;;;;;4982052;28;20080;-78
2021/12/03 00:58:00;;;;;;;6.85;4.38;;;1.30;99.90;;;;;;4983345;28;20022;-77
2021/12/03 01:00:30;;;;;;;7.93;4.30;;;1.30;99.90;;;;;;4982749;28;20046;-79
2021/12/03 01:03:01;;;;;;;9.15;4.40;;;1.30;99.90;;;;;;4983009;28;20019;-77
2021/12/03 01:05:28;;;;;;;7.85;4.45;;;1.30;99.90;;;;;;4981999;28;20031;-76
2021/12/03 01:07:54;;;;;;;7.28;4.25;;;1.30;99.90;;;;;;4982294;28;20033;-77
2021/12/03 01:10:21;;;;;;;10.73;4.25;;;1.40;99.90;;;;;;4983094;28;20090;-77
2021/12/03 01:12:47;;;;;;;8.93;4.57;;;1.40;99.90;;;;;;4982669;28;20061;-77
2021/12/03 01:15:16;;;;;;;7.80;4.35;;;1.40;99.90;;;;;;4973933;28;20039;-77
2021/12/03 01:17:42;;;;;;;9.00;4.22;;;1.40;99.90;;;;;;4979786;28;20042;-78
2021/12/03 01:20:10;;;;;;;9.02;4.18;;;1.30;99.90;;;;;;4966725;28;20047;-79
2021/12/03 01:22:37;;;;;;;5.67;4.20;;;1.30;99.90;;;;;;4961639;28;20133;-78
2021/12/03 01:25:05;;;;;;;7.38;3.88;;;1.40;99.90;;;;;;4970225;28;20015;-78
2021/12/03 01:27:31;;;;;;;9.32;4.22;;;1.40;99.90;;;;;;4982950;28;20371;-77
2021/12/03 01:29:57;;;;;;;10.77;5.60;;;1.40;99.90;;;;;;4981413;28;20023;-79
2021/12/03 01:32:22;;;;;;;9.15;4.68;;;1.40;99.90;;;;;;4980837;28;20118;-77
2021/12/03 01:34:48;;;;;;;9.57;4.65;;;1.50;99.90;;;;;;4982134;28;20043;-78
2021/12/03 01:37:14;;;;;;;9.00;4.68;;;1.50;99.90;;;;;;4982702;28;20085;-78
2021/12/03 01:39:40;;;;;;;8.85;4.53;;;1.50;99.90;;;;;;4979958;28;20110;-80
2021/12/03 01:42:06;;;;;;;10.32;5.20;;;1.60;99.90;;;;;;4971961;28;20042;-77
2021/12/03 01:44:32;;;;;;;8.10;4.40;;;1.60;99.90;;;;;;4982299;28;20031;-77
2021/12/03 01:46:57;;;;;;;9.48;4.47;;;1.60;99.90;;;;;;4981657;28;20047;-77
2021/12/03 01:49:23;;;;;;;9.40;4.85;;;1.60;99.90;;;;;;4972809;28;20045;-81
2021/12/03 01:51:49;;;;;;;9.18;4.75;;;1.50;99.90;;;;;;4978395;28;20081;-79
2021/12/03 01:54:18;;;;;;;8.77;4.50;;;1.40;99.90;;;;;;4981413;28;20050;-77
2021/12/03 01:56:44;;;;;;;10.38;4.95;;;1.30;99.90;;;;;;4980914;28;20054;-79
2021/12/03 01:59:10;;;;;;;9.57;4.55;;;1.30;99.90;;;;;;4963165;28;20049;-76
2021/12/03 02:01:36;;;;;;;9.10;4.75;;;1.20;99.90;;;;;;4976866;28;20266;-78
2021/12/03 02:04:06;;;;;;;10.75;5.13;;;1.20;99.90;;;;;;4970129;28;20034;-77
2021/12/03 02:06:33;;;;;;;8.63;4.95;;;1.20;99.90;;;;;;4982747;28;20046;-77
2021/12/03 02:09:00;;;;;;;10.80;5.13;;;1.10;99.90;;;;;;4981946;28;20121;-77
2021/12/03 02:11:29;;;;;;;9.40;4.95;;;1.00;99.90;;;;;;4969627;28;20335;-78
2021/12/03 02:13:55;;;;;;;8.48;5.10;;;0.90;99.90;;;;;;4982040;28;20220;-77
2021/12/03 02:16:22;;;;;;;11.18;5.50;;;0.90;99.90;;;;;;4981956;28;20049;-76
2021/12/03 02:18:48;;;;;;;13.02;5.60;;;0.80;99.90;;;;;;4978481;28;20047;-79
2021/12/03 02:21:15;;;;;;;10.50;5.05;;;0.90;99.90;;;;;;4945612;29;20035;-78
2021/12/03 02:23:42;;;;;;;10.68;5.20;;;0.90;99.90;;;;;;4962302;28;20333;-78
2021/12/03 02:26:09;;;;;;;9.75;5.35;;;1.00;99.90;;;;;;4962868;28;20037;-78
2021/12/03 02:28:38;;;;;;;8.68;5.35;;;0.90;99.90;;;;;;4964291;28;20038;-78
2021/12/03 02:31:04;;;;;;;8.95;5.38;;;0.90;99.90;;;;;;4976772;28;20061;-77
2021/12/03 02:33:32;;;;;;;11.20;5.70;;;0.90;99.90;;;;;;4972712;28;20125;-77
2021/12/03 02:35:57;;;;;;;8.60;4.95;;;0.80;99.90;;;;;;4981304;28;20037;-77
2021/12/03 02:38:24;;;;;;;9.07;5.28;;;0.80;99.90;;;;;;4980271;28;20039;-79
2021/12/03 02:40:51;;;;;;;10.27;5.57;;;0.70;99.90;;;;;;4970803;28;20030;-77
2021/12/03 02:43:18;;;;;;;9.63;5.30;;;0.70;99.90;;;;;;4980055;28;20030;-76
2021/12/03 02:45:43;;;;;;;10.65;5.78;;;0.80;99.90;;;;;;4963765;28;20035;-77
2021/12/03 02:48:09;;;;;;;9.23;4.90;;;0.70;99.90;;;;;;4968533;28;20019;-77
2021/12/03 02:50:36;;;;;;;12.52;5.63;;;0.70;99.90;;;;;;4968915;28;20054;-77
2021/12/03 02:53:02;;;;;;;10.15;5.53;;;0.80;99.90;;;;;;4981062;28;20026;-77
2021/12/03 02:55:28;;;;;;;8.45;5.38;;;0.80;99.90;;;;;;4980177;28;20054;-77
2021/12/03 02:57:54;;;;;;;10.05;5.60;;;0.70;99.90;;;;;;4981263;28;20367;-77
2021/12/03 03:00:23;;;;;;;14.13;5.82;;;0.70;99.90;;;;;;4980124;28;20042;-77
2021/12/03 03:02:50;;;;;;;10.55;5.25;;;0.80;99.90;;;;;;4980831;28;20023;-79
2021/12/03 03:05:18;;;;;;;10.93;5.45;;;0.70;99.90;;;;;;4975531;28;20019;-80
2021/12/03 03:07:44;;;;;;;12.48;6.20;;;0.60;99.90;;;;;;4961420;28;20317;-76
2021/12/03 03:10:15;;;;;;;10.23;5.43;;;0.60;99.90;;;;;;4962128;28;20298;-77
2021/12/03 03:12:42;;;;;;;10.63;5.65;;;0.50;99.90;;;;;;4961516;28;20039;-80
2021/12/03 03:15:10;;;;;;;10.95;5.90;;;0.50;99.90;;;;;;4960793;28;20085;-78
2021/12/03 03:17:37;;;;;;;11.45;5.88;;;0.50;99.90;;;;;;4960417;29;20027;-78
2021/12/03 03:20:05;;;;;;;9.30;5.35;;;0.70;99.90;;;;;;4982994;28;20260;-79
2021/12/03 03:22:32;;;;;;;9.95;5.93;;;0.70;99.90;;;;;;4960683;29;20105;-79
2021/12/03 03:25:01;;;;;;;8.50;5.38;;;0.70;99.90;;;;;;4959831;29;20340;-76
2021/12/03 03:27:29;;;;;;;10.77;5.90;;;0.70;99.90;;;;;;4961601;28;20019;-75
2021/12/03 03:29:55;;;;;;;8.77;5.57;;;0.70;99.90;;;;;;5043879;28;20028;-77
2021/12/03 03:32:21;;;;;;;8.15;5.30;;;0.80;99.90;;;;;;4960779;29;20055;-76
2021/12/03 03:34:47;;;;;;;9.93;5.47;;;0.80;99.90;;;;;;4964738;28;20051;-78
2021/12/03 03:37:14;;;;;;;10.23;5.85;;;0.90;99.90;;;;;;4964668;29;20042;-78
2021/12/03 03:39:40;;;;;;;10.38;5.28;;;1.00;99.90;;;;;;4963151;29;20201;-77
2021/12/03 03:42:07;;;;;;;10.25;5.85;;;0.90;99.90;;;;;;4960795;29;20309;-78
2021/12/03 03:44:33;;;;;;;10.27;6.00;;;1.10;99.90;;;;;;4961689;29;20054;-80
2021/12/03 03:47:01;;;;;;;7.28;5.00;;;1.10;99.90;;;;;;4960071;29;20098;-77
2021/12/03 03:49:27;;;;;;;11.03;5.80;;;1.10;99.90;;;;;;4961638;28;20023;-77
2021/12/03 03:51:55;;;;;;;8.80;5.25;;;1.10;99.90;;;;;;4976817;28;20027;-75
2021/12/03 03:54:21;;;;;;;9.57;5.20;;;1.10;99.90;;;;;;4979882;28;20042;-77
2021/12/03 03:56:47;;;;;;;10.18;5.72;;;1.20;99.90;;;;;;4980051;28;20308;-78
2021/12/03 03:59:17;;;;;;;8.52;6.00;;;1.30;99.90;;;;;;4980615;28;20035;-76
2021/12/03 04:01:44;;;;;;;11.48;5.55;;;1.30;99.90;;;;;;4980545;28;20049;-78
2021/12/03 04:04:11;;;;;;;9.70;6.20;;;1.30;99.90;;;;;;4980654;28;20114;-77
2021/12/03 04:06:37;;;;;;;9.07;5.38;;;1.30;99.90;;;;;;4979171;28;20039;-78
2021/12/03 04:09:03;;;;;;;8.77;5.40;;;1.30;99.90;;;;;;4979271;28;20236;-77
2021/12/03 04:11:29;;;;;;;8.55;5.30;;;1.30;99.90;;;;;;4979243;28;20027;-77
2021/12/03 04:13:55;;;;;;;9.05;5.28;;;1.40;99.90;;;;;;4960994;28;20035;-77
2021/12/03 04:16:21;;;;;;;7.93;5.30;;;1.40;99.90;;;;;;4966504;28;20031;-78
2021/12/03 04:18:57;;;;;;;8.48;5.55;;;1.50;99.90;;;;;;4960117;28;20023;-78
2021/12/03 04:21:23;;;;;;;10.02;5.50;;;1.50;99.90;;;;;;4959601;28;20248;-77
2021/12/03 04:23:50;;;;;;;9.20;5.57;;;1.50;99.90;;;;;;4959342;29;20273;-77
2021/12/03 04:26:22;;;;;;;8.32;5.38;;;1.60;99.90;;;;;;4959863;29;20217;-80
2021/12/03 04:28:48;;;;;;;8.90;5.47;;;1.60;99.90;;;;;;4959182;29;20035;-78
2021/12/03 04:31:14;;;;;;;8.90;5.43;;;1.60;99.90;;;;;;4960734;28;20135;-77
2021/12/03 04:33:40;;;;;;;8.85;5.13;;;1.60;99.90;;;;;;4960680;28;20341;-78
2021/12/03 04:36:06;;;;;;;9.32;5.20;;;1.60;99.90;;;;;;4943437;29;20027;-78
2021/12/03 04:38:32;;;;;;;9.20;5.50;;;1.60;99.90;;;;;;4959416;29;20043;-77
2021/12/03 04:41:01;;;;;;;7.75;5.28;;;1.60;99.90;;;;;;4959421;28;20023;-76
2021/12/03 04:43:29;;;;;;;8.00;5.15;;;1.50;99.90;;;;;;4960612;28;20069;-77
2021/12/03 04:45:55;;;;;;;11.13;6.05;;;1.60;99.90;;;;;;4959013;29;20058;-77
2021/12/03 04:48:21;;;;;;;8.52;5.82;;;1.60;99.90;;;;;;4959786;29;20031;-76
2021/12/03 04:50:47;;;;;;;9.50;5.65;;;1.60;99.90;;;;;;4966747;28;20022;-76
2021/12/03 04:53:14;;;;;;;8.70;5.72;;;1.50;99.90;;;;;;4979957;28;20042;-76
2021/12/03 04:55:40;;;;;;;12.00;6.72;;;1.50;99.90;;;;;;4979782;28;20023;-77
2021/12/03 04:58:06;;;;;;;10.65;5.85;;;1.50;99.90;;;;;;4979478;28;20065;-77
2021/12/03 05:00:44;;;;;;;7.90;5.60;;;1.60;99.90;;;;;;4980037;28;20233;-79
2021/12/03 05:03:10;;;;;;;8.60;5.53;;;1.60;99.90;;;;;;4978384;28;20034;-81
2021/12/03 05:05:38;;;;;;;9.48;5.65;;;1.70;99.90;;;;;;4978084;28;20042;-77
2021/12/03 05:08:07;;;;;;;8.98;5.38;;;1.70;99.90;;;;;;4945227;29;20034;-79
2021/12/03 05:10:37;;;;;;;8.57;5.63;;;1.70;99.90;;;;;;4962093;29;20035;-79
2021/12/03 05:13:13;;;;;;;9.55;5.95;;;1.70;99.90;;;;;;4974994;28;20042;-76
2021/12/03 05:15:41;;;;;;;10.00;5.72;;;1.60;99.90;;;;;;4983595;28;20034;-78
2021/12/03 05:18:09;;;;;;;8.93;5.72;;;1.60;99.90;;;;;;4965880;28;20305;-78
2021/12/03 05:20:35;;;;;;;9.60;6.38;;;1.60;99.90;;;;;;4961531;29;20030;-80
2021/12/03 05:23:00;;;;;;;10.05;6.15;;;1.70;99.90;;;;;;4964584;28;20233;-78
2021/12/03 05:25:27;;;;;;;8.32;5.45;;;1.60;99.90;;;;;;4965595;28;20058;-77
2021/12/03 05:27:53;;;;;;;9.98;5.90;;;1.60;99.90;;;;;;4981131;28;20039;-77
2021/12/03 05:30:19;;;;;;;7.78;5.38;;;1.60;99.90;;;;;;4981859;28;20025;-77
2021/12/03 05:32:46;;;;;;;9.13;5.55;;;1.60;99.90;;;;;;4966859;28;20055;-78
2021/12/03 05:35:12;;;;;;;7.55;5.45;;;1.70;99.90;;;;;;4982528;28;20039;-79
2021/12/03 05:37:38;;;;;;;9.98;5.30;;;1.60;99.90;;;;;;4982889;28;20062;-79
2021/12/03 05:40:05;;;;;;;7.38;5.25;;;1.70;99.90;;;;;;4969209;28;20046;-78
2021/12/03 05:42:31;;;;;;;8.32;5.50;;;1.60;99.90;;;;;;4983710;28;20064;-79
2021/12/03 05:44:58;;;;;;;8.38;5.20;;;1.60;99.90;;;;;;4983164;28;20239;-81
2021/12/03 05:47:24;;;;;;;7.57;5.22;;;1.60;99.90;;;;;;4983218;28;20089;-81
2021/12/03 05:49:50;;;;;;;8.93;5.85;;;1.60;99.90;;;;;;4964195;28;20328;-80
2021/12/03 05:52:16;;;;;;;9.40;5.70;;;1.60;99.90;;;;;;4979019;28;20027;-81
2021/12/03 05:54:43;;;;;;;10.05;5.65;;;1.60;99.90;;;;;;4963381;29;20076;-80
2021/12/03 05:57:09;;;;;;;8.48;5.60;;;1.70;99.90;;;;;;4966525;28;20086;-79
2021/12/03 05:59:37;;;;;;;8.40;5.28;;;1.70;99.90;;;;;;4981407;28;20045;-80
2021/12/03 06:02:04;;;;;;;8.18;5.30;;;1.70;99.90;;;;;;4980382;28;20050;-80
2021/12/03 06:04:30;;;;;;;9.18;4.88;;;1.70;99.90;;;;;;4982337;28;20065;-79
2021/12/03 06:06:56;;;;;;;7.57;4.85;;;1.70;99.90;;;;;;4980706;28;20031;-77
2021/12/03 06:09:22;;;;;;;9.20;5.30;;;1.60;99.90;;;;;;4982317;28;20026;-77
2021/12/03 06:11:48;;;;;;;9.50;5.50;;;1.60;99.90;;;;;;4965430;28;20031;-80
2021/12/03 06:14:14;;;;;;;7.85;4.80;;;1.50;99.90;;;;;;4982343;28;20035;-77
2021/12/03 06:16:40;;;;;;;8.38;5.10;;;1.60;99.90;;;;;;4980754;28;20110;-77
2021/12/03 06:19:06;;;;;;;7.70;5.80;;;1.70;99.90;;;;;;4980900;28;20095;-77
2021/12/03 06:21:32;;;;;;;10.18;5.40;;;1.70;99.90;;;;;;4960901;28;20093;-79
2021/12/03 06:23:57;;;;;;;9.65;5.38;;;1.70;99.90;;;;;;4962989;28;20027;-78
2021/12/03 06:26:23;;;;;;;8.88;5.18;;;1.70;99.90;;;;;;4961560;29;20019;-77
2021/12/03 06:28:49;;;;;;;8.85;5.28;;;1.70;99.90;;;;;;4961548;29;20312;-77
2021/12/03 06:31:16;;;;;;;8.27;5.38;;;1.70;99.90;;;;;;4960627;28;20055;-74
2021/12/03 06:33:42;;;;;;;10.13;5.50;;;1.80;99.90;;;;;;4965691;28;20316;-77
2021/12/03 06:36:08;;;;;;;7.85;5.05;;;1.60;99.90;;;;;;4981288;28;20031;-78
2021/12/03 06:38:38;;;;;;;9.07;5.13;;;1.60;99.90;;;;;;4964721;28;20046;-76
2021/12/03 06:41:05;;;;;;;8.85;5.55;;;1.50;99.90;;;;;;4978459;28;20317;-77
2021/12/03 06:43:31;;;;;;;8.18;5.38;;;1.40;99.90;;;;;;4962181;28;20019;-77
2021/12/03 06:45:57;;;;;;;8.73;5.22;;;1.30;99.90;;;;;;4981930;28;20054;-78
2021/12/03 06:48:23;;;;;;;8.30;5.53;;;1.30;99.90;;;;;;4988360;28;20049;-75
2021/12/03 06:50:50;;;;;;;9.68;5.90;;;1.30;99.90;;;;;;4989554;28;20038;-76
2021/12/03 06:53:20;;;;;;;9.95;5.47;;;1.20;99.90;;;;;;4984866;28;20051;-77
2021/12/03 06:55:53;;;;;;;9.57;5.70;;;1.10;99.90;;;;;;4981476;28;20309;-78
2021/12/03 06:58:20;;;;;;;7.80;4.82;;;0.90;99.90;;;;;;4981396;28;20097;-76
2021/12/03 07:00:49;;;;;;;8.20;5.28;;;0.90;99.90;;;;;;4981044;28;20027;-75
2021/12/03 07:03:15;;;;;;;8.35;4.85;;;0.90;99.90;;;;;;4979912;28;20050;-76
2021/12/03 07:05:41;;;;;;;9.27;5.90;;;0.80;99.90;;;;;;4981605;28;20026;-80
2021/12/03 07:08:07;;;;;;;8.77;5.03;;;0.60;99.90;;;;;;4979585;28;20073;-79
2021/12/03 07:10:34;;;;;;;7.70;4.90;;;0.60;99.90;;;;;;4980746;28;20328;-76
2021/12/03 07:13:00;;;;;;;9.43;5.60;;;0.60;99.90;;;;;;4980776;28;20027;-76
2021/12/03 07:15:26;;;;;;;6.45;4.47;;;0.70;99.90;;;;;;4980844;28;20042;-77
2021/12/03 07:17:52;;;;;;;8.45;5.00;;;0.70;99.90;;;;;;4981624;28;20162;-78
2021/12/03 07:20:22;;;;;;;9.27;5.18;;;0.80;99.90;;;;;;4976858;28;20041;-78
2021/12/03 07:22:48;;;;;;;9.70;5.60;;;0.70;99.90;;;;;;4981034;28;20309;-78
2021/12/03 07:25:15;;;;;;;7.72;4.90;;;0.70;99.90;;;;;;4979313;28;20023;-78
2021/12/03 07:27:41;;;;;;;7.95;4.97;;;0.60;99.90;;;;;;4976689;28;20026;-76
2021/12/03 07:30:10;;;;;;;8.13;4.68;;;0.60;99.90;;;;;;4972135;28;20027;-78
2021/12/03 07:32:36;;;;;;;8.18;5.05;;;0.60;99.90;;;;;;4981317;28;20046;-77
2021/12/03 07:35:03;;;;;;;9.65;5.15;;;0.50;99.90;;;;;;4980960;28;20112;-79
2021/12/03 07:37:30;;;;;;;7.33;3.63;;;0.50;99.90;;;;;;4964108;28;20046;-77
2021/12/03 07:39:57;;;;;;;9.27;5.05;;;0.50;99.90;;;;;;4983357;28;20086;-77
2021/12/03 07:42:23;;;;;;;8.60;5.43;;;0.40;99.90;;;;;;4981175;28;20018;-77
2021/12/03 07:44:49;;;;;;;9.10;4.95;;;0.40;99.90;;;;;;4980003;28;20095;-76
2021/12/03 07:47:16;;;;;;;8.10;5.10;;;0.40;99.90;;;;;;4979409;28;20042;-76
2021/12/03 07:49:42;;;;;;;10.73;5.88;;;0.50;99.90;;;;;;4980614;28;20031;-77
2021/12/03 07:52:11;;;;;;;10.60;5.55;;;0.60;99.90;;;;;;4962977;28;20325;-77
2021/12/03 07:54:37;;;;;;;9.52;5.72;;;0.70;99.90;;;;;;4961224;28;20312;-78
2021/12/03 07:57:04;;;;;;;9.85;5.70;;;0.70;99.90;;;;;;4960581;28;20031;-76
2021/12/03 07:59:30;;;;;;;8.35;5.47;;;0.80;99.90;;;;;;4944073;29;20039;-79
2021/12/03 08:01:56;;;;;;;10.05;5.95;;;0.90;99.90;;;;;;4958368;28;20105;-77
2021/12/03 08:04:21;;;;;;;7.97;5.40;;;0.90;99.90;;;;;;4978872;28;20060;-77
2021/12/03 08:06:52;;;;;;;10.45;5.97;;;1.00;99.90;;;;;;4979071;28;20031;-78
2021/12/03 08:09:20;;;;;;;9.75;5.75;;;0.90;99.90;;;;;;4979064;28;20198;-79
2021/12/03 08:11:46;;;;;;;11.13;6.32;;;1.00;99.90;;;;;;4979413;28;20027;-79
2021/12/03 08:14:12;;;;;;;9.23;5.47;;;1.00;99.90;;;;;;4980262;28;20317;-78
2021/12/03 08:16:39;;;;;;;10.43;5.70;;;1.10;99.90;;;;;;4980132;28;20110;-79
2021/12/03 08:19:06;;;;;;;9.65;5.45;;;1.20;99.90;;;;;;4979415;28;20046;-78
2021/12/03 08:21:32;;;;;;;10.15;5.60;;;1.30;99.90;;;;;;4970479;28;20036;-79
2021/12/03 08:24:00;;;;;;;10.75;6.63;;;1.50;99.90;;;;;;4960707;29;20034;-78
2021/12/03 08:26:26;;;;;;;7.30;5.00;;;1.60;99.90;;;;;;4959698;29;20182;-78
2021/12/03 08:28:52;;;;;;;10.05;5.80;;;1.70;99.90;;;;;;4961036;28;20458;-78
2021/12/03 08:31:18;;;;;;;9.52;6.40;;;1.80;99.90;;;;;;4959294;28;20118;-78
2021/12/03 08:33:45;;;;;;;11.60;6.05;;;1.90;99.90;;;;;;4960994;29;20027;-78
2021/12/03 08:36:11;;;;;;;9.10;5.30;;;1.80;99.90;;;;;;4959516;29;20088;-78
2021/12/03 08:38:37;;;;;;;9.63;5.10;;;1.80;99.90;;;;;;4960422;29;20027;-76
2021/12/03 08:41:04;;;;;;;8.55;4.95;;;1.90;99.90;;;;;;4964001;28;20046;-78
2021/12/03 08:43:30;;;;;;;9.18;4.70;;;1.90;99.90;;;;;;4963961;28;20073;-78
2021/12/03 08:45:56;;;;;;;8.02;4.72;;;1.90;99.90;;;;;;4962480;28;20043;-76
2021/12/03 08:48:23;;;;;;;8.90;5.32;;;1.90;99.90;;;;;;4971962;28;20049;-78
2021/12/03 08:51:36;;;;;;;8.35;4.72;;;1.80;99.90;;;;;;4981346;28;20042;-78
2021/12/03 08:56:08;;;;;;;5.70;3.75;;;1.80;99.90;;;;;;5064700;28;20032;-78
2021/12/03 08:58:33;;;;;;;6.28;4.18;;;1.90;99.90;;;;;;5065482;28;20258;-76
2021/12/03 09:00:59;;;;;;;7.47;4.53;;;2.00;99.90;;;;;;5051096;28;20042;-77
2021/12/03 09:03:26;;;;;;;7.18;4.18;;;2.00;99.90;;;;;;4983208;28;20228;-78
2021/12/03 09:05:52;;;;;;;7.10;4.00;;;2.00;99.90;;;;;;4981713;28;20363;-76
2021/12/03 09:08:18;;;;;;;8.32;4.28;;;2.10;99.90;;;;;;4982441;28;20313;-76
2021/12/03 09:10:44;;;;;;;7.60;4.32;;;2.10;99.90;;;;;;4982131;28;20133;-79
2021/12/03 09:13:10;;;;;;;6.90;3.17;;;2.20;99.90;;;;;;4982591;28;20094;-77
2021/12/03 09:15:44;;;;;;;5.10;3.00;;;2.20;99.90;;;;;;4979246;28;20073;-79
2021/12/03 09:18:37;;;;;;;6.03;3.42;;;2.30;99.90;;;;;;4975942;28;20038;-76
2021/12/03 09:26:12;;;;;;;5.90;2.90;;;2.40;99.90;;;;;;5064582;28;20043;-78
2021/12/03 09:28:41;;;;;;;6.22;2.92;;;2.40;99.90;;;;;;5064884;28;20029;-77
2021/12/03 09:31:10;;;;;;;7.60;2.80;;;2.50;99.90;;;;;;5061894;28;20326;-78
2021/12/03 09:33:39;;;;;;;;;;;2.50;99.90;;;;;;5065463;28;20029;-78
2021/12/03 09:36:07;;;;;;;7.72;2.47;;;2.50;99.90;;;;;;4961858;29;19913;-78
2021/12/03 09:38:34;;;;;;;7.57;2.67;;;2.70;99.90;;;;;;4961856;29;20352;-78
2021/12/03 09:41:13;;;;;;;3.00;1.83;;;2.70;99.90;;;;;;4961889;29;20149;-77
2021/12/03 09:43:46;;;;;;;6.30;2.72;;;2.70;99.90;;;;;;4962054;29;20062;-80
2021/12/03 09:51:18;;;;;;;4.22;2.13;;;2.90;99.90;;;;;;4960443;28;20194;-78
2021/12/03 09:54:36;;;;;;;3.72;2.00;;;2.90;99.90;;;;;;4962048;29;20043;-77
2021/12/03 09:56:33;;;;;;;3.85;2.50;;;2.90;99.90;;;;;;4949213;29;20332;-77
2021/12/03 10:15:36;;;;;;;10.68;2.72;;;3.60;99.90;;;;;;4959260;28;20072;-74
2021/12/03 10:20:50;;;;;;;3.83;2.30;;;3.60;99.90;;;;;;4990076;28;20050;-76
2021/12/03 10:29:30;;;;;;;5.28;1.90;;;4.10;99.90;;;;;;4942912;28;20133;-75
2021/12/03 10:45:43;;;;;;;3.95;2.20;;;5.90;99.90;;;;;;4962726;28;20254;-82
2021/12/03 10:48:23;;;;;;;6.55;2.63;;;6.10;99.90;;;;;;4963571;28;20047;-77
2021/12/03 10:51:22;;;;;;;5.03;2.35;;;6.60;99.90;;;;;;4968471;28;20225;-77
2021/12/03 10:53:58;;;;;;;;;;;7.20;99.90;;;;;;4962727;28;20110;-76
2021/12/03 11:02:28;;;;;;;4.85;2.40;;;7.80;99.90;;;;;;4961369;28;20225;-78
2021/12/03 12:42:02;;;;;;;4.05;1.70;;;9.40;96.60;;;;;;4929426;29;20054;-77
2021/12/03 18:03:26;;;;;;;3.78;2.05;;;3.00;99.90;;;;;;4981988;28;20347;-80
2021/12/03 18:08:44;;;;;;;5.53;1.60;;;3.00;99.90;;;;;;4983168;28;20056;-76
2021/12/03 18:43:50;;;;;;;7.22;3.30;;;3.00;99.90;;;;;;4976117;28;20026;-77
2021/12/03 18:48:59;;;;;;;4.40;2.28;;;3.00;99.90;;;;;;4980675;28;20043;-77
2021/12/03 18:56:48;;;;;;;5.35;2.08;;;3.10;99.90;;;;;;4981399;28;20031;-75
2021/12/03 18:59:15;;;;;;;4.85;2.20;;;3.10;99.90;;;;;;5012634;28;20344;-76
2021/12/03 19:01:41;;;;;;;3.97;1.83;;;3.20;99.90;;;;;;5062061;28;20040;-77
2021/12/03 19:09:16;;;;;;;4.43;1.95;;;3.30;99.90;;;;;;4980961;28;20038;-75
2021/12/03 19:14:19;;;;;;;4.82;2.00;;;3.30;99.90;;;;;;4980022;28;20027;-77
2021/12/03 19:16:45;;;;;;;5.97;2.40;;;3.30;99.90;;;;;;4980391;28;20039;-78
2021/12/03 19:19:14;;;;;;;4.45;2.22;;;3.30;99.90;;;;;;4963785;28;20118;-78
2021/12/03 19:21:42;;;;;;;6.47;3.42;;;3.30;99.90;;;;;;4979335;28;20080;-79
2021/12/03 19:24:13;;;;;;;7.43;3.13;;;3.20;99.90;;;;;;4978533;28;20370;-79
2021/12/03 19:26:43;;;;;;;6.43;2.60;;;3.30;99.90;;;;;;4979369;28;20031;-77
2021/12/03 19:29:18;;;;;;;6.30;2.92;;;3.20;99.90;;;;;;4963439;28;20034;-79
2021/12/03 19:31:50;;;;;;;6.07;3.60;;;3.20;99.90;;;;;;4979983;28;20059;-77
2021/12/03 19:34:19;;;;;;;7.40;3.65;;;3.20;99.90;;;;;;4980156;28;20084;-78
2021/12/03 19:36:47;;;;;;;6.03;3.55;;;3.20;99.90;;;;;;4979234;28;20079;-76
2021/12/03 19:39:15;;;;;;;9.07;3.80;;;3.10;99.90;;;;;;4963385;28;20325;-76
2021/12/03 19:44:14;;;;;;;9.68;4.88;;;3.20;99.90;;;;;;4962104;28;20094;-75
2021/12/03 19:46:45;;;;;;;6.72;3.60;;;3.10;99.90;;;;;;4957741;28;20072;-76
2021/12/03 19:51:46;;;;;;;6.70;3.80;;;3.10;99.90;;;;;;4978827;28;20316;-76
2021/12/03 19:54:13;;;;;;;9.52;4.47;;;3.20;99.90;;;;;;4976851;28;20092;-78
2021/12/03 19:56:40;;;;;;;8.65;4.22;;;3.10;99.90;;;;;;4960647;28;20106;-76
2021/12/03 19:59:07;;;;;;;9.88;4.20;;;3.10;99.90;;;;;;4977968;28;20039;-75
2021/12/03 20:01:34;;;;;;;9.45;3.95;;;3.10;99.90;;;;;;4978459;28;20061;-77
2021/12/03 20:04:01;;;;;;;8.52;4.32;;;3.20;99.90;;;;;;4980449;28;20034;-77
2021/12/03 20:06:27;;;;;;;11.75;4.95;;;3.20;99.90;;;;;;4980500;28;20089;-76
2021/12/03 20:08:56;;;;;;;7.43;4.53;;;3.10;99.90;;;;;;4978516;28;20274;-77
2021/12/03 20:11:26;;;;;;;8.15;4.15;;;3.10;99.90;;;;;;4979201;28;20084;-77
2021/12/03 20:13:58;;;;;;;8.38;4.25;;;3.20;99.90;;;;;;4978856;28;20279;-77
2021/12/03 20:16:29;;;;;;;8.20;3.83;;;3.20;99.90;;;;;;4980089;28;20043;-77
2021/12/03 20:19:03;;;;;;;9.75;3.78;;;3.30;99.90;;;;;;4979313;28;20259;-76
2021/12/03 20:21:30;;;;;;;9.27;4.20;;;3.30;99.90;;;;;;4980312;28;20027;-76
2021/12/03 20:31:41;;;;;;;9.20;3.95;;;3.20;99.90;;;;;;4971002;28;20123;-78
2021/12/03 20:34:20;;;;;;;8.07;4.20;;;3.20;99.90;;;;;;4979445;28;20351;-78
2021/12/03 20:36:57;;;;;;;8.48;4.60;;;3.20;99.90;;;;;;4963194;28;20081;-79
2021/12/03 20:39:26;;;;;;;7.88;4.38;;;3.30;99.90;;;;;;4962979;28;20043;-78
2021/12/03 20:42:05;;;;;;;7.15;3.85;;;3.20;99.90;;;;;;4953397;29;20050;-77
2021/12/03 20:58:21;;;;;;;7.25;4.05;;;3.30;99.90;;;;;;4982504;28;20035;-78
2021/12/03 21:11:04;;;;;;;7.57;3.53;;;3.50;99.90;;;;;;4988937;28;20045;-76
2021/12/03 21:13:33;;;;;;;6.15;2.80;;;3.50;99.90;;;;;;4966605;28;20027;-76
2021/12/03 21:16:10;;;;;;;6.15;3.28;;;3.50;99.90;;;;;;4985585;28;20061;-76
2021/12/03 21:18:52;;;;;;;6.63;3.47;;;3.60;99.90;;;;;;4990362;28;20049;-76
2021/12/03 21:21:33;;;;;;;7.50;3.20;;;3.60;99.90;;;;;;4983990;28;20062;-78
2021/12/03 21:24:00;;;;;;;4.65;2.42;;;3.60;99.90;;;;;;4983449;28;20034;-79
2021/12/03 21:26:30;;;;;;;7.10;4.28;;;3.70;99.90;;;;;;4965100;28;20073;-80
2021/12/03 21:42:11;;;;;;;6.05;2.53;;;3.90;99.90;;;;;;4982346;28;20019;-78
2021/12/03 21:44:37;;;;;;;5.15;2.55;;;3.90;99.90;;;;;;4969684;28;20108;-77
2021/12/03 21:47:04;;;;;;;4.47;2.63;;;3.80;99.90;;;;;;4977217;28;20088;-78
2021/12/03 21:49:29;;;;;;;8.30;4.75;;;3.50;99.90;;;;;;4981215;28;20324;-76
2021/12/03 21:51:55;;;;;;;6.00;3.15;;;3.40;99.90;;;;;;4980629;28;20097;-78
2021/12/03 21:54:21;;;;;;;7.70;3.15;;;3.30;99.90;;;;;;4981024;28;20336;-78
2021/12/03 21:56:48;;;;;;;6.47;3.10;;;3.30;99.90;;;;;;4979214;28;20030;-77
2021/12/03 21:59:17;;;;;;;10.70;4.82;;;3.30;99.90;;;;;;4982109;28;20031;-76
2021/12/03 22:01:43;;;;;;;3.95;2.13;;;3.40;99.90;;;;;;4980116;28;20049;-78
2021/12/03 22:04:09;;;;;;;6.22;3.65;;;3.50;99.90;;;;;;5062557;28;20088;-80
2021/12/03 22:06:36;;;;;;;4.68;2.25;;;3.60;99.90;;;;;;4988792;28;20297;-78
2021/12/03 22:09:04;;;;;;;5.72;2.60;;;3.60;99.90;;;;;;4964874;28;20035;-75
2021/12/03 22:11:30;;;;;;;5.80;3.20;;;3.70;99.90;;;;;;4980462;28;20031;-76
2021/12/03 22:13:56;;;;;;;5.80;2.92;;;3.70;99.90;;;;;;4981360;28;20260;-79
2021/12/03 22:16:22;;;;;;;5.03;2.60;;;3.70;99.90;;;;;;4943734;28;20053;-77
2021/12/03 22:18:48;;;;;;;8.35;3.80;;;3.80;99.90;;;;;;4943070;29;20039;-79
2021/12/03 22:21:16;;;;;;;5.55;2.65;;;3.80;99.90;;;;;;4932639;28;20032;-77
2021/12/03 22:23:43;;;;;;;6.47;3.58;;;3.80;99.90;;;;;;4944150;29;20039;-76
2021/12/03 22:26:11;;;;;;;4.38;2.33;;;3.80;99.90;;;;;;4992111;28;20021;-75
2021/12/03 22:28:38;;;;;;;4.82;2.40;;;3.80;99.90;;;;;;5043361;28;20075;-77
2021/12/03 22:31:05;;;;;;;4.82;2.20;;;3.90;99.90;;;;;;5040343;28;20119;-80
2021/12/03 22:33:31;;;;;;;4.18;2.00;;;3.90;99.90;;;;;;4974022;28;20032;-77